sensor_id;sensor_type;location;lat;lon;timestamp;pressure;altitude;pressure_sealevel;temperature;humidity
54453;BME280;40363;52.270;10.546;2023-09-19T00:00:06;75198.72;;;-147.06;100.00
54453;BME280;40363;52.270;10.546;2023-09-19T00:02:38;75206.94;;;-147.06;100.00
54453;BME280;40363;52.270;10.546;2023-09-19T00:05:05;75217.22;;;-147.06;99.47
54453;BME280;40363;52.270;10.546;2023-09-19T00:07:34;75206.94;;;-147.06;98.25
54453;BME280;40363;52.270;10.546;2023-09-19T00:10:02;75202.84;;;-147.06;98.54
54453;BME280;40363;52.270;10.546;2023-09-19T00:12:30;75202.84;;;-147.06;98.25
54453;BME280;40363;52.270;10.546;2023-09-19T00:14:58;75206.94;;;-147.06;98.00
54453;BME280;40363;52.270;10.546;2023-09-19T00:17:26;75209.00;;;-147.06;97.72
54453;BME280;40363;52.270;10.546;2023-09-19T00:19:55;75211.06;;;-147.06;97.30
54453;BME280;40363;52.270;10.546;2023-09-19T00:22:22;75211.06;;;-147.06;97.49
54453;BME280;40363;52.270;10.546;2023-09-19T00:24:51;75209.00;;;-147.06;97.17
54453;BME280;40363;52.270;10.546;2023-09-19T00:27:18;75211.06;;;-147.06;97.61
54453;BME280;40363;52.270;10.546;2023-09-19T00:29:45;75215.16;;;-147.06;97.88
54453;BME280;40363;52.270;10.546;2023-09-19T00:32:13;75219.28;;;-147.06;98.80
54453;BME280;40363;52.270;10.546;2023-09-19T00:34:39;75227.50;;;-147.06;98.56
54453;BME280;40363;52.270;10.546;2023-09-19T00:37:07;75227.50;;;-147.06;98.34
54453;BME280;40363;52.270;10.546;2023-09-19T00:39:36;75219.28;;;-147.06;98.37
54453;BME280;40363;52.270;10.546;2023-09-19T00:42:03;75235.72;;;-147.06;98.45
54453;BME280;40363;52.270;10.546;2023-09-19T00:44:30;75237.75;;;-147.06;98.76
54453;BME280;40363;52.270;10.546;2023-09-19T00:46:57;75231.59;;;-147.06;98.70
54453;BME280;40363;52.270;10.546;2023-09-19T00:49:25;75248.03;;;-147.06;98.99
54453;BME280;40363;52.270;10.546;2023-09-19T00:51:52;75233.66;;;-147.06;98.29
54453;BME280;40363;52.270;10.546;2023-09-19T00:54:19;75250.09;;;-147.06;98.15
54453;BME280;40363;52.270;10.546;2023-09-19T00:56:46;75248.03;;;-147.06;98.59
54453;BME280;40363;52.270;10.546;2023-09-19T00:59:14;75256.25;;;-147.06;98.88
54453;BME280;40363;52.270;10.546;2023-09-19T01:01:42;75254.19;;;-147.06;98.72
54453;BME280;40363;52.270;10.546;2023-09-19T01:04:11;75262.41;;;-147.06;98.45
54453;BME280;40363;52.270;10.546;2023-09-19T01:06:39;75264.47;;;-147.06;99.22
54453;BME280;40363;52.270;10.546;2023-09-19T01:09:05;75256.25;;;-147.06;98.68
54453;BME280;40363;52.270;10.546;2023-09-19T01:11:36;75256.25;;;-147.06;98.69
54453;BME280;40363;52.270;10.546;2023-09-19T01:14:12;75260.38;;;-147.06;98.33
54453;BME280;40363;52.270;10.546;2023-09-19T01:16:45;75266.53;;;-147.06;98.67
54453;BME280;40363;52.270;10.546;2023-09-19T01:19:41;75258.31;;;-147.06;98.25
54453;BME280;40363;52.270;10.546;2023-09-19T01:22:21;75274.75;;;-147.06;99.14
54453;BME280;40363;52.270;10.546;2023-09-19T01:25:11;75262.41;;;-147.06;98.75
54453;BME280;40363;52.270;10.546;2023-09-19T01:27:57;75270.63;;;-147.06;98.70
54453;BME280;40363;52.270;10.546;2023-09-19T01:30:35;75268.59;;;-147.06;98.66
54453;BME280;40363;52.270;10.546;2023-09-19T01:33:03;75278.84;;;-147.06;98.18
54453;BME280;40363;52.270;10.546;2023-09-19T01:35:31;75276.81;;;-147.06;98.20
54453;BME280;40363;52.270;10.546;2023-09-19T01:37:59;75282.97;;;-147.06;97.82
54453;BME280;40363;52.270;10.546;2023-09-19T01:40:26;75285.03;;;-147.06;98.02
54453;BME280;40363;52.270;10.546;2023-09-19T01:42:57;75289.13;;;-147.06;98.13
54453;BME280;40363;52.270;10.546;2023-09-19T01:45:33;75297.34;;;-147.06;98.48
54453;BME280;40363;52.270;10.546;2023-09-19T01:48:13;75299.41;;;-147.06;98.55
54453;BME280;40363;52.270;10.546;2023-09-19T01:50:52;75297.34;;;-147.06;98.46
54453;BME280;40363;52.270;10.546;2023-09-19T01:53:24;75309.69;;;-147.06;98.21
54453;BME280;40363;52.270;10.546;2023-09-19T01:55:54;75309.69;;;-147.06;98.76
54453;BME280;40363;52.270;10.546;2023-09-19T01:58:34;75303.53;;;-147.06;98.29
54453;BME280;40363;52.270;10.546;2023-09-19T02:01:04;75301.47;;;-147.06;98.49
54453;BME280;40363;52.270;10.546;2023-09-19T02:03:33;75301.47;;;-147.06;98.58
54453;BME280;40363;52.270;10.546;2023-09-19T02:06:00;75307.63;;;-147.06;98.44
54453;BME280;40363;52.270;10.546;2023-09-19T02:08:28;75317.91;;;-147.06;98.25
54453;BME280;40363;52.270;10.546;2023-09-19T02:10:58;75317.91;;;-147.06;98.52
54453;BME280;40363;52.270;10.546;2023-09-19T02:13:26;75311.75;;;-147.06;98.48
54453;BME280;40363;52.270;10.546;2023-09-19T02:15:53;75326.13;;;-147.06;98.92
54453;BME280;40363;52.270;10.546;2023-09-19T02:18:22;75326.13;;;-147.06;98.58
54453;BME280;40363;52.270;10.546;2023-09-19T02:20:49;75330.22;;;-147.06;98.89
54453;BME280;40363;52.270;10.546;2023-09-19T02:23:16;75334.34;;;-147.06;98.74
54453;BME280;40363;52.270;10.546;2023-09-19T02:25:51;75336.41;;;-147.06;98.63
54453;BME280;40363;52.270;10.546;2023-09-19T02:28:17;75338.44;;;-147.06;98.61
54453;BME280;40363;52.270;10.546;2023-09-19T02:30:47;75348.72;;;-147.06;99.04
54453;BME280;40363;52.270;10.546;2023-09-19T02:33:13;75340.50;;;-147.06;98.78
54453;BME280;40363;52.270;10.546;2023-09-19T02:35:42;75354.88;;;-147.06;99.13
54453;BME280;40363;52.270;10.546;2023-09-19T02:38:08;75350.78;;;-147.06;98.72
54453;BME280;40363;52.270;10.546;2023-09-19T02:40:37;75356.94;;;-147.06;99.04
54453;BME280;40363;52.270;10.546;2023-09-19T02:43:04;75359.00;;;-147.06;99.31
54453;BME280;40363;52.270;10.546;2023-09-19T02:45:32;75363.09;;;-147.06;99.41
54453;BME280;40363;52.270;10.546;2023-09-19T02:47:59;75367.22;;;-147.06;98.97
54453;BME280;40363;52.270;10.546;2023-09-19T02:50:25;75373.38;;;-147.06;99.12
54453;BME280;40363;52.270;10.546;2023-09-19T02:52:54;75377.50;;;-147.06;99.12
54453;BME280;40363;52.270;10.546;2023-09-19T02:55:21;75385.72;;;-147.06;99.46
54453;BME280;40363;52.270;10.546;2023-09-19T02:57:48;75387.75;;;-147.06;99.73
54453;BME280;40363;52.270;10.546;2023-09-19T03:00:16;75393.94;;;-147.06;99.59
54453;BME280;40363;52.270;10.546;2023-09-19T03:02:46;75393.94;;;-147.06;99.32
54453;BME280;40363;52.270;10.546;2023-09-19T03:05:13;75400.09;;;-147.06;99.27
54453;BME280;40363;52.270;10.546;2023-09-19T03:07:41;75402.16;;;-147.06;99.40
54453;BME280;40363;52.270;10.546;2023-09-19T03:10:09;75400.09;;;-147.06;99.10
54453;BME280;40363;52.270;10.546;2023-09-19T03:12:36;75402.16;;;-147.06;99.04
54453;BME280;40363;52.270;10.546;2023-09-19T03:15:06;75416.53;;;-147.06;98.99
54453;BME280;40363;52.270;10.546;2023-09-19T03:17:33;75418.59;;;-147.06;98.95
54453;BME280;40363;52.270;10.546;2023-09-19T03:20:00;75420.63;;;-147.06;98.90
54453;BME280;40363;52.270;10.546;2023-09-19T03:22:27;75422.69;;;-147.06;99.09
54453;BME280;40363;52.270;10.546;2023-09-19T03:24:54;75426.81;;;-147.06;98.94
54453;BME280;40363;52.270;10.546;2023-09-19T03:27:22;75426.81;;;-147.06;98.72
54453;BME280;40363;52.270;10.546;2023-09-19T03:29:49;75418.59;;;-147.06;98.39
54453;BME280;40363;52.270;10.546;2023-09-19T03:32:16;75424.75;;;-147.06;98.73
54453;BME280;40363;52.270;10.546;2023-09-19T03:34:42;75426.81;;;-147.06;98.55
54453;BME280;40363;52.270;10.546;2023-09-19T03:37:09;75428.84;;;-147.06;98.72
54453;BME280;40363;52.270;10.546;2023-09-19T03:39:36;75426.81;;;-147.06;98.60
54453;BME280;40363;52.270;10.546;2023-09-19T03:42:03;75428.84;;;-147.06;98.58
54453;BME280;40363;52.270;10.546;2023-09-19T03:44:33;75432.97;;;-147.06;98.63
54453;BME280;40363;52.270;10.546;2023-09-19T03:47:00;75435.03;;;-147.06;98.52
54453;BME280;40363;52.270;10.546;2023-09-19T03:49:26;75441.19;;;-147.06;98.50
54453;BME280;40363;52.270;10.546;2023-09-19T03:51:53;75437.06;;;-147.06;98.56
54453;BME280;40363;52.270;10.546;2023-09-19T03:54:20;75439.13;;;-147.06;98.59
54453;BME280;40363;52.270;10.546;2023-09-19T03:56:46;75428.84;;;-147.06;98.40
54453;BME280;40363;52.270;10.546;2023-09-19T03:59:13;75435.03;;;-147.06;98.45
54453;BME280;40363;52.270;10.546;2023-09-19T04:01:42;75435.03;;;-147.06;98.34
54453;BME280;40363;52.270;10.546;2023-09-19T04:04:09;75443.25;;;-147.06;98.58
54453;BME280;40363;52.270;10.546;2023-09-19T04:06:36;75461.75;;;-147.06;99.20
54453;BME280;40363;52.270;10.546;2023-09-19T04:09:03;75457.63;;;-147.06;98.80
54453;BME280;40363;52.270;10.546;2023-09-19T04:11:32;75465.84;;;-147.06;98.88
54453;BME280;40363;52.270;10.546;2023-09-19T04:13:58;75469.97;;;-147.06;98.69
54453;BME280;40363;52.270;10.546;2023-09-19T04:16:25;75474.06;;;-147.06;98.51
54453;BME280;40363;52.270;10.546;2023-09-19T04:18:53;75478.19;;;-147.06;98.96
54453;BME280;40363;52.270;10.546;2023-09-19T04:21:20;75480.22;;;-147.06;99.00
54453;BME280;40363;52.270;10.546;2023-09-19T04:23:46;75482.28;;;-147.06;98.75
54453;BME280;40363;52.270;10.546;2023-09-19T04:26:13;75490.50;;;-147.06;98.69
54453;BME280;40363;52.270;10.546;2023-09-19T04:28:41;75492.56;;;-147.06;98.80
54453;BME280;40363;52.270;10.546;2023-09-19T04:31:09;75496.66;;;-147.06;98.67
54453;BME280;40363;52.270;10.546;2023-09-19T04:33:37;75504.88;;;-147.06;98.78
54453;BME280;40363;52.270;10.546;2023-09-19T04:36:05;75513.09;;;-147.06;98.51
54453;BME280;40363;52.270;10.546;2023-09-19T04:38:32;75519.28;;;-147.06;97.96
54453;BME280;40363;52.270;10.546;2023-09-19T04:40:59;75517.22;;;-147.06;97.64
54453;BME280;40363;52.270;10.546;2023-09-19T04:43:26;75515.16;;;-147.06;95.99
54453;BME280;40363;52.270;10.546;2023-09-19T04:45:53;75511.06;;;-147.06;93.46
54453;BME280;40363;52.270;10.546;2023-09-19T04:48:21;75506.94;;;-147.06;93.04
54453;BME280;40363;52.270;10.546;2023-09-19T04:50:49;75502.84;;;-147.06;92.18
54453;BME280;40363;52.270;10.546;2023-09-19T04:53:17;75498.72;;;-147.06;91.70
54453;BME280;40363;52.270;10.546;2023-09-19T04:55:49;75486.41;;;-147.06;91.02
54453;BME280;40363;52.270;10.546;2023-09-19T04:58:16;75482.28;;;-147.06;90.92
54453;BME280;40363;52.270;10.546;2023-09-19T05:00:43;75492.56;;;-147.06;90.48
54453;BME280;40363;52.270;10.546;2023-09-19T05:03:10;75486.41;;;-147.06;90.34
54453;BME280;40363;52.270;10.546;2023-09-19T05:05:36;75484.34;;;-147.06;90.52
54453;BME280;40363;52.270;10.546;2023-09-19T05:08:04;75492.56;;;-147.06;90.69
54453;BME280;40363;52.270;10.546;2023-09-19T05:10:32;75490.50;;;-147.06;90.87
54453;BME280;40363;52.270;10.546;2023-09-19T05:12:59;75494.63;;;-147.06;91.22
54453;BME280;40363;52.270;10.546;2023-09-19T05:15:26;75494.63;;;-147.06;91.29
54453;BME280;40363;52.270;10.546;2023-09-19T05:17:52;75486.41;;;-147.06;91.76
54453;BME280;40363;52.270;10.546;2023-09-19T05:20:20;75496.66;;;-147.06;92.13
54453;BME280;40363;52.270;10.546;2023-09-19T05:22:50;75494.63;;;-147.06;92.38
54453;BME280;40363;52.270;10.546;2023-09-19T05:25:17;75496.66;;;-147.06;92.08
54453;BME280;40363;52.270;10.546;2023-09-19T05:27:45;75500.78;;;-147.06;91.78
54453;BME280;40363;52.270;10.546;2023-09-19T05:30:12;75492.56;;;-147.06;91.56
54453;BME280;40363;52.270;10.546;2023-09-19T05:32:41;75498.72;;;-147.06;91.05
54453;BME280;40363;52.270;10.546;2023-09-19T05:35:09;75513.09;;;-147.06;91.66
54453;BME280;40363;52.270;10.546;2023-09-19T05:37:38;75511.06;;;-147.06;91.82
54453;BME280;40363;52.270;10.546;2023-09-19T05:40:05;75506.94;;;-147.06;91.26
54453;BME280;40363;52.270;10.546;2023-09-19T05:42:36;75504.88;;;-147.06;90.82
54453;BME280;40363;52.270;10.546;2023-09-19T05:45:05;75506.94;;;-147.06;90.74
54453;BME280;40363;52.270;10.546;2023-09-19T05:47:32;75515.16;;;-147.06;90.85
54453;BME280;40363;52.270;10.546;2023-09-19T05:49:59;75519.28;;;-147.06;90.90
54453;BME280;40363;52.270;10.546;2023-09-19T05:52:26;75527.50;;;-147.06;90.14
54453;BME280;40363;52.270;10.546;2023-09-19T05:54:52;75535.72;;;-147.06;90.06
54453;BME280;40363;52.270;10.546;2023-09-19T05:57:19;75546.00;;;-147.06;89.79
54453;BME280;40363;52.270;10.546;2023-09-19T05:59:47;75550.09;;;-147.06;90.06
54453;BME280;40363;52.270;10.546;2023-09-19T06:02:17;75556.25;;;-147.06;90.09
54453;BME280;40363;52.270;10.546;2023-09-19T06:04:45;75556.25;;;-147.06;90.09
54453;BME280;40363;52.270;10.546;2023-09-19T06:07:11;75552.16;;;-147.06;90.17
54453;BME280;40363;52.270;10.546;2023-09-19T06:09:38;75543.94;;;-147.06;89.69
54453;BME280;40363;52.270;10.546;2023-09-19T06:12:05;75554.22;;;-147.06;89.31
54453;BME280;40363;52.270;10.546;2023-09-19T06:14:32;75552.16;;;-147.06;89.17
54453;BME280;40363;52.270;10.546;2023-09-19T06:16:59;75556.25;;;-147.06;88.57
54453;BME280;40363;52.270;10.546;2023-09-19T06:19:27;75564.47;;;-147.06;88.35
54453;BME280;40363;52.270;10.546;2023-09-19T06:21:53;75568.59;;;-147.06;87.76
54453;BME280;40363;52.270;10.546;2023-09-19T06:24:20;75580.91;;;-147.06;87.78
54453;BME280;40363;52.270;10.546;2023-09-19T06:26:47;75585.03;;;-147.06;86.72
54453;BME280;40363;52.270;10.546;2023-09-19T06:29:14;75574.75;;;-147.06;85.51
54453;BME280;40363;52.270;10.546;2023-09-19T06:31:41;75568.59;;;-147.06;84.65
54453;BME280;40363;52.270;10.546;2023-09-19T06:34:09;75546.00;;;-147.06;83.80
54453;BME280;40363;52.270;10.546;2023-09-19T06:36:38;75556.25;;;-147.06;82.31
54453;BME280;40363;52.270;10.546;2023-09-19T06:39:04;75550.09;;;-147.06;81.80
54453;BME280;40363;52.270;10.546;2023-09-19T06:41:32;75556.25;;;-147.06;81.34
54453;BME280;40363;52.270;10.546;2023-09-19T06:43:58;75556.25;;;-147.06;80.32
54453;BME280;40363;52.270;10.546;2023-09-19T06:46:25;75539.81;;;-147.06;79.46
54453;BME280;40363;52.270;10.546;2023-09-19T06:48:58;75535.72;;;-147.06;78.18
54453;BME280;40363;52.270;10.546;2023-09-19T06:51:24;75531.59;;;-147.06;78.07
54453;BME280;40363;52.270;10.546;2023-09-19T06:53:52;75506.94;;;-147.06;77.39
54453;BME280;40363;52.270;10.546;2023-09-19T06:56:19;75465.84;;;-147.06;76.24
54453;BME280;40363;52.270;10.546;2023-09-19T06:58:50;75395.97;;;-147.06;74.04
54453;BME280;40363;52.270;10.546;2023-09-19T07:01:16;75346.66;;;-147.06;72.26
54453;BME280;40363;52.270;10.546;2023-09-19T07:03:43;75338.44;;;-147.06;71.78
54453;BME280;40363;52.270;10.546;2023-09-19T07:06:11;75282.97;;;-147.06;70.71
54453;BME280;40363;52.270;10.546;2023-09-19T07:08:37;75213.09;;;-147.06;70.39
54453;BME280;40363;52.270;10.546;2023-09-19T07:11:06;75186.41;;;-147.06;67.94
54453;BME280;40363;52.270;10.546;2023-09-19T07:13:33;75120.66;;;-147.06;66.44
54453;BME280;40363;52.270;10.546;2023-09-19T07:15:59;75056.94;;;-147.06;64.17
54453;BME280;40363;52.270;10.546;2023-09-19T07:18:25;75003.53;;;-147.06;62.19
54453;BME280;40363;52.270;10.546;2023-09-19T07:20:56;74946.00;;;-147.06;60.01
54453;BME280;40363;52.270;10.546;2023-09-19T07:23:26;74923.41;;;-147.06;59.49
54453;BME280;40363;52.270;10.546;2023-09-19T07:25:57;74894.63;;;-147.06;58.07
54453;BME280;40363;52.270;10.546;2023-09-19T07:28:25;74861.75;;;-147.06;57.10
54453;BME280;40363;52.270;10.546;2023-09-19T07:30:53;74948.06;;;-147.06;58.94
54453;BME280;40363;52.270;10.546;2023-09-19T07:33:20;74935.72;;;-147.06;57.65
54453;BME280;40363;52.270;10.546;2023-09-19T07:35:47;74941.91;;;-147.06;57.83
54453;BME280;40363;52.270;10.546;2023-09-19T07:38:14;74906.97;;;-147.06;56.42
54453;BME280;40363;52.270;10.546;2023-09-19T07:40:40;74888.47;;;-147.06;55.98
54453;BME280;40363;52.270;10.546;2023-09-19T07:43:07;74880.25;;;-147.06;55.72
54453;BME280;40363;52.270;10.546;2023-09-19T07:45:35;74849.44;;;-147.06;54.81
54453;BME280;40363;52.270;10.546;2023-09-19T07:48:02;75022.03;;;-147.06;57.70
54453;BME280;40363;52.270;10.546;2023-09-19T07:50:33;74952.16;;;-147.06;56.09
54453;BME280;40363;52.270;10.546;2023-09-19T07:53:02;74894.63;;;-147.06;55.20
54453;BME280;40363;52.270;10.546;2023-09-19T07:55:30;74904.91;;;-147.06;54.69
54453;BME280;40363;52.270;10.546;2023-09-19T07:57:59;74929.56;;;-147.06;54.14
54453;BME280;40363;52.270;10.546;2023-09-19T08:00:25;74898.75;;;-147.06;53.86
54453;BME280;40363;52.270;10.546;2023-09-19T08:02:53;75100.09;;;-147.06;57.55
54453;BME280;40363;52.270;10.546;2023-09-19T08:05:21;75069.28;;;-147.06;56.66
54453;BME280;40363;52.270;10.546;2023-09-19T08:07:47;75096.00;;;-147.06;57.73
54453;BME280;40363;52.270;10.546;2023-09-19T08:10:15;75079.56;;;-147.06;57.02
54453;BME280;40363;52.270;10.546;2023-09-19T08:12:46;75009.69;;;-147.06;55.20
54453;BME280;40363;52.270;10.546;2023-09-19T08:15:13;75042.56;;;-147.06;56.38
54453;BME280;40363;52.270;10.546;2023-09-19T08:17:40;75044.63;;;-147.06;56.71
54453;BME280;40363;52.270;10.546;2023-09-19T08:20:09;75118.59;;;-147.06;56.67
54453;BME280;40363;52.270;10.546;2023-09-19T08:22:42;75172.00;;;-147.06;58.39
54453;BME280;40363;52.270;10.546;2023-09-19T08:25:09;75217.22;;;-147.06;59.48
54453;BME280;40363;52.270;10.546;2023-09-19T08:27:35;75178.19;;;-147.06;59.11
54453;BME280;40363;52.270;10.546;2023-09-19T08:30:02;75157.63;;;-147.06;58.04
54453;BME280;40363;52.270;10.546;2023-09-19T08:32:29;75186.41;;;-147.06;58.48
54453;BME280;40363;52.270;10.546;2023-09-19T08:34:56;75182.28;;;-147.06;58.91
54453;BME280;40363;52.270;10.546;2023-09-19T08:37:24;75200.78;;;-147.06;59.43
54453;BME280;40363;52.270;10.546;2023-09-19T08:39:50;75213.09;;;-147.06;59.46
54453;BME280;40363;52.270;10.546;2023-09-19T08:42:17;75213.09;;;-147.06;59.20
54453;BME280;40363;52.270;10.546;2023-09-19T08:44:46;75202.84;;;-147.06;59.05
54453;BME280;40363;52.270;10.546;2023-09-19T08:47:15;75202.84;;;-147.06;59.25
54453;BME280;40363;52.270;10.546;2023-09-19T08:49:52;75188.44;;;-147.06;58.84
54453;BME280;40363;52.270;10.546;2023-09-19T08:52:31;75178.19;;;-147.06;58.83
54453;BME280;40363;52.270;10.546;2023-09-19T08:55:01;75145.31;;;-147.06;58.35
54453;BME280;40363;52.270;10.546;2023-09-19T08:57:33;75108.31;;;-147.06;57.96
54453;BME280;40363;52.270;10.546;2023-09-19T09:00:01;75098.03;;;-147.06;57.19
54453;BME280;40363;52.270;10.546;2023-09-19T09:02:31;75071.34;;;-147.06;57.08
54453;BME280;40363;52.270;10.546;2023-09-19T09:05:00;75122.69;;;-147.06;56.69
54453;BME280;40363;52.270;10.546;2023-09-19T09:07:29;75079.56;;;-147.06;55.70
54453;BME280;40363;52.270;10.546;2023-09-19T09:09:56;75098.03;;;-147.06;55.97
54453;BME280;40363;52.270;10.546;2023-09-19T09:12:23;75128.88;;;-147.06;56.83
54453;BME280;40363;52.270;10.546;2023-09-19T09:14:50;75096.00;;;-147.06;56.10
54453;BME280;40363;52.270;10.546;2023-09-19T09:17:17;75079.56;;;-147.06;56.09
54453;BME280;40363;52.270;10.546;2023-09-19T09:19:45;75096.00;;;-147.06;56.04
54453;BME280;40363;52.270;10.546;2023-09-19T09:22:12;75081.59;;;-147.06;55.82
54453;BME280;40363;52.270;10.546;2023-09-19T09:24:52;75116.53;;;-147.06;55.41
54453;BME280;40363;52.270;10.546;2023-09-19T09:27:20;75118.59;;;-147.06;55.86
54453;BME280;40363;52.270;10.546;2023-09-19T09:29:50;75137.09;;;-147.06;55.82
54453;BME280;40363;52.270;10.546;2023-09-19T09:32:20;75151.47;;;-147.06;56.43
54453;BME280;40363;52.270;10.546;2023-09-19T09:34:49;75108.31;;;-147.06;55.44
54453;BME280;40363;52.270;10.546;2023-09-19T09:37:17;75083.66;;;-147.06;55.43
54453;BME280;40363;52.270;10.546;2023-09-19T09:39:49;75106.25;;;-147.06;54.37
54453;BME280;40363;52.270;10.546;2023-09-19T09:42:29;75116.53;;;-147.06;54.77
54453;BME280;40363;52.270;10.546;2023-09-19T09:45:12;75091.88;;;-147.06;54.61
54453;BME280;40363;52.270;10.546;2023-09-19T09:47:43;75116.53;;;-147.06;55.14
54453;BME280;40363;52.270;10.546;2023-09-19T09:50:26;75112.44;;;-147.06;54.78
54453;BME280;40363;52.270;10.546;2023-09-19T09:53:19;75161.75;;;-147.06;54.95
54453;BME280;40363;52.270;10.546;2023-09-19T09:56:00;75176.13;;;-147.06;55.75
54453;BME280;40363;52.270;10.546;2023-09-19T09:58:29;75145.31;;;-147.06;55.43
54453;BME280;40363;52.270;10.546;2023-09-19T10:00:57;75128.88;;;-147.06;54.54
54453;BME280;40363;52.270;10.546;2023-09-19T10:03:34;75132.97;;;-147.06;54.85
54453;BME280;40363;52.270;10.546;2023-09-19T10:06:10;75184.34;;;-147.06;55.14
54453;BME280;40363;52.270;10.546;2023-09-19T10:09:04;75165.84;;;-147.06;54.92
54453;BME280;40363;52.270;10.546;2023-09-19T10:11:41;75190.50;;;-147.06;56.29
54453;BME280;40363;52.270;10.546;2023-09-19T10:14:10;75188.44;;;-147.06;55.33
54453;BME280;40363;52.270;10.546;2023-09-19T10:16:40;75128.88;;;-147.06;54.07
54453;BME280;40363;52.270;10.546;2023-09-19T10:19:07;75126.81;;;-147.06;54.55
54453;BME280;40363;52.270;10.546;2023-09-19T10:21:36;75122.69;;;-147.06;54.83
54453;BME280;40363;52.270;10.546;2023-09-19T10:24:03;75143.25;;;-147.06;54.29
54453;BME280;40363;52.270;10.546;2023-09-19T10:26:34;75096.00;;;-147.06;53.54
54453;BME280;40363;52.270;10.546;2023-09-19T10:29:01;75093.94;;;-147.06;53.49
54453;BME280;40363;52.270;10.546;2023-09-19T10:31:36;75112.44;;;-147.06;53.34
54453;BME280;40363;52.270;10.546;2023-09-19T10:34:06;75100.09;;;-147.06;53.34
54453;BME280;40363;52.270;10.546;2023-09-19T10:36:36;75081.59;;;-147.06;53.60
54453;BME280;40363;52.270;10.546;2023-09-19T10:39:04;75005.59;;;-147.06;52.45
54453;BME280;40363;52.270;10.546;2023-09-19T10:41:32;75059.00;;;-147.06;52.63
54453;BME280;40363;52.270;10.546;2023-09-19T10:44:03;75108.31;;;-147.06;53.97
54453;BME280;40363;52.270;10.546;2023-09-19T10:46:32;75116.53;;;-147.06;54.63
54453;BME280;40363;52.270;10.546;2023-09-19T10:49:00;75161.75;;;-147.06;54.64
54453;BME280;40363;52.270;10.546;2023-09-19T10:51:30;75126.81;;;-147.06;54.20
54453;BME280;40363;52.270;10.546;2023-09-19T10:54:01;75112.44;;;-147.06;54.91
54453;BME280;40363;52.270;10.546;2023-09-19T10:56:34;75178.19;;;-147.06;54.91
54453;BME280;40363;52.270;10.546;2023-09-19T10:59:07;75145.31;;;-147.06;54.84
54453;BME280;40363;52.270;10.546;2023-09-19T11:01:45;75190.50;;;-147.06;55.04
54453;BME280;40363;52.270;10.546;2023-09-19T11:04:26;75174.06;;;-147.06;55.37
54453;BME280;40363;52.270;10.546;2023-09-19T11:07:05;75157.63;;;-147.06;55.08
54453;BME280;40363;52.270;10.546;2023-09-19T11:09:44;75149.41;;;-147.06;54.93
54453;BME280;40363;52.270;10.546;2023-09-19T11:12:12;75137.09;;;-147.06;54.53
54453;BME280;40363;52.270;10.546;2023-09-19T11:14:42;75122.69;;;-147.06;54.83
54453;BME280;40363;52.270;10.546;2023-09-19T11:17:42;75132.97;;;-147.06;55.20
54453;BME280;40363;52.270;10.546;2023-09-19T11:20:22;75135.03;;;-147.06;54.67
54453;BME280;40363;52.270;10.546;2023-09-19T11:23:20;75135.03;;;-147.06;55.39
54453;BME280;40363;52.270;10.546;2023-09-19T11:25:52;75087.78;;;-147.06;55.20
54453;BME280;40363;52.270;10.546;2023-09-19T11:28:34;75112.44;;;-147.06;54.83
54453;BME280;40363;52.270;10.546;2023-09-19T11:34:37;75124.75;;;-147.06;54.62
54453;BME280;40363;52.270;10.546;2023-09-19T11:40:45;75145.31;;;-147.06;54.12
54453;BME280;40363;52.270;10.546;2023-09-19T11:43:32;75120.66;;;-147.06;53.54
54453;BME280;40363;52.270;10.546;2023-09-19T11:46:04;75100.09;;;-147.06;54.18
54453;BME280;40363;52.270;10.546;2023-09-19T11:48:32;75108.31;;;-147.06;53.88
54453;BME280;40363;52.270;10.546;2023-09-19T11:51:00;75079.56;;;-147.06;53.52
54453;BME280;40363;52.270;10.546;2023-09-19T11:53:34;75083.66;;;-147.06;53.57
54453;BME280;40363;52.270;10.546;2023-09-19T11:56:04;75100.09;;;-147.06;53.13
54453;BME280;40363;52.270;10.546;2023-09-19T11:58:32;75116.53;;;-147.06;52.64
54453;BME280;40363;52.270;10.546;2023-09-19T12:01:00;75132.97;;;-147.06;52.94
54453;BME280;40363;52.270;10.546;2023-09-19T12:03:29;75145.31;;;-147.06;53.34
54453;BME280;40363;52.270;10.546;2023-09-19T12:05:58;75149.41;;;-147.06;53.23
54453;BME280;40363;52.270;10.546;2023-09-19T12:08:24;75124.75;;;-147.06;53.47
54453;BME280;40363;52.270;10.546;2023-09-19T12:10:53;75112.44;;;-147.06;53.65
54453;BME280;40363;52.270;10.546;2023-09-19T12:13:21;75108.31;;;-147.06;52.87
54453;BME280;40363;52.270;10.546;2023-09-19T12:15:47;75124.75;;;-147.06;53.12
54453;BME280;40363;52.270;10.546;2023-09-19T12:18:27;75108.31;;;-147.06;52.47
54453;BME280;40363;52.270;10.546;2023-09-19T12:20:55;75089.81;;;-147.06;52.70
54453;BME280;40363;52.270;10.546;2023-09-19T12:23:23;75100.09;;;-147.06;52.79
54453;BME280;40363;52.270;10.546;2023-09-19T12:25:51;75112.44;;;-147.06;53.27
54453;BME280;40363;52.270;10.546;2023-09-19T12:28:20;75093.94;;;-147.06;53.03
54453;BME280;40363;52.270;10.546;2023-09-19T12:30:48;75089.81;;;-147.06;52.83
54453;BME280;40363;52.270;10.546;2023-09-19T12:33:16;75102.16;;;-147.06;52.77
54453;BME280;40363;52.270;10.546;2023-09-19T12:35:44;75104.22;;;-147.06;52.32
54453;BME280;40363;52.270;10.546;2023-09-19T12:38:22;75100.09;;;-147.06;52.18
54453;BME280;40363;52.270;10.546;2023-09-19T12:40:50;75110.38;;;-147.06;52.42
54453;BME280;40363;52.270;10.546;2023-09-19T12:43:17;75091.88;;;-147.06;52.71
54453;BME280;40363;52.270;10.546;2023-09-19T12:45:46;75106.25;;;-147.06;52.33
54453;BME280;40363;52.270;10.546;2023-09-19T12:48:23;75096.00;;;-147.06;52.04